Terminal Aerodrome Forecast
Issued by NWS Sioux Falls, SD

Home | Current Version | Previous Version | Text Only | Print | Product List | Glossary Off
Versions: 1 2 3 4 5 6 7 8 9 10 11 12 13 14 15 16 17 18 19 20 21

000
FTUS43 KFSD 280750 AAB
TAFFSD
TAF AMD
KFSD 280750Z 2808/2906 16014G21KT 6SM -TSRA SCT020 OVC060CB
      TEMPO 2808/2810 VRB15G35KT 2SM +TSRA OVC025CB
     FM281000 18010KT 6SM BR SCT007 BKN090
      TEMPO 2810/2812 5SM -SHRA BR SCT015 OVC050
     FM281600 29012G20KT P6SM BKN025
     FM282000 29012G20KT P6SM SKC
     FM290100 28008KT P6SM SKC=

USA.gov is the U.S. government's official web portal to all federal, state and local government web resources and services.